Time;durP1;ratioP1;P1;durP2;ratioP2;P2;SDS_P1;SDS_P2;PMS_P1;PMS_P2;Temp;Humidity;BMP_temperature;BMP_pressure;BME280_temperature;BME280_humidity;BME280_pressure;Samples;Min_cycle;Max_cycle;Signal;HPM_P1;HPM_P2
2022/05/19 00:01:09;;;;;;;13.93;12.27;;;18.50;99.90;;;;;;5059901;28;38201;-74
2022/05/19 00:03:37;;;;;;;15.82;11.55;;;18.50;99.90;;;;;;5067368;28;36203;-74
2022/05/19 00:06:05;;;;;;;21.65;13.80;;;18.50;99.90;;;;;;5100755;27;38646;-74
2022/05/19 00:08:32;;;;;;;18.17;12.88;;;18.60;99.90;;;;;;5070841;27;39279;-74
2022/05/19 00:11:01;;;;;;;16.27;13.80;;;18.60;99.90;;;;;;5074567;28;38185;-74
2022/05/19 00:13:29;;;;;;;18.85;12.77;;;18.60;99.90;;;;;;5067546;27;47482;-74
2022/05/19 00:15:56;;;;;;;16.25;13.30;;;18.60;99.90;;;;;;5077944;28;38044;-74
2022/05/19 00:18:22;;;;;;;18.60;14.15;;;18.60;99.90;;;;;;5072298;27;38509;-73
2022/05/19 00:20:49;;;;;;;22.88;14.43;;;18.60;99.90;;;;;;5078831;28;38118;-74
2022/05/19 00:23:16;;;;;;;16.45;14.13;;;18.60;99.90;;;;;;5078549;27;37482;-74
2022/05/19 00:25:42;;;;;;;21.40;15.15;;;18.60;99.90;;;;;;5068921;28;38330;-74
2022/05/19 00:28:09;;;;;;;21.77;14.88;;;18.60;99.90;;;;;;5068757;27;39459;-74
2022/05/19 00:30:36;;;;;;;21.58;15.85;;;18.60;99.90;;;;;;5069114;28;38113;-74
2022/05/19 00:33:03;;;;;;;19.52;14.88;;;18.70;99.90;;;;;;5069245;27;40011;-74
2022/05/19 00:35:29;;;;;;;21.77;16.42;;;18.60;99.90;;;;;;5063451;28;39958;-74
2022/05/19 00:37:55;;;;;;;19.88;15.70;;;18.60;99.90;;;;;;5062109;27;38398;-74
2022/05/19 00:40:23;;;;;;;21.48;16.67;;;18.60;99.90;;;;;;5062277;28;39258;-74
2022/05/19 00:42:51;;;;;;;22.52;17.38;;;18.70;99.90;;;;;;5073880;28;37960;-74
2022/05/19 00:45:23;;;;;;;23.20;18.30;;;18.70;99.90;;;;;;5066461;27;38518;-74
2022/05/19 00:47:53;;;;;;;;;;;18.70;99.90;;;;;;5068876;27;38363;-73
2022/05/19 00:50:41;;;;;;;22.00;16.65;;;18.70;99.90;;;;;;5073527;27;38054;-74
2022/05/19 00:53:34;;;;;;;23.42;18.17;;;18.70;99.90;;;;;;5086807;27;35134;-74
2022/05/19 00:56:05;;;;;;;21.23;17.08;;;18.60;99.90;;;;;;5066823;28;39575;-74
2022/05/19 00:58:37;;;;;;;21.55;17.73;;;18.60;99.90;;;;;;5070793;28;46203;-73
2022/05/19 01:01:05;;;;;;;22.27;18.65;;;18.60;99.90;;;;;;5073557;28;37957;-75
2022/05/19 01:03:39;;;;;;;24.92;19.48;;;18.60;99.90;;;;;;5077160;28;38193;-74
2022/05/19 01:06:12;;;;;;;22.63;18.92;;;18.60;99.90;;;;;;5067714;28;37706;-74
2022/05/19 01:09:04;;;;;;;22.38;18.45;;;18.60;99.90;;;;;;5074294;27;38803;-74
2022/05/19 01:11:31;;;;;;;25.17;19.40;;;18.70;99.90;;;;;;5064991;28;48731;-74
2022/05/19 01:13:58;;;;;;;22.75;17.83;;;18.60;99.90;;;;;;5075823;28;38271;-74
2022/05/19 01:16:25;;;;;;;28.27;20.80;;;18.70;99.90;;;;;;5069059;28;40011;-74
2022/05/19 01:18:51;;;;;;;23.42;20.63;;;18.70;99.90;;;;;;5078207;28;38813;-74
2022/05/19 01:21:20;;;;;;;23.33;18.83;;;18.70;99.90;;;;;;5074711;28;39869;-74
2022/05/19 01:24:05;;;;;;;19.92;17.70;;;18.70;99.90;;;;;;5066494;28;39131;-74
2022/05/19 01:26:44;;;;;;;24.83;19.75;;;18.80;99.90;;;;;;5083733;28;47237;-75
2022/05/19 01:29:13;;;;;;;26.60;19.80;;;18.80;99.90;;;;;;5072582;27;38349;-74
2022/05/19 01:31:50;;;;;;;24.83;20.33;;;18.80;99.90;;;;;;5066227;28;39590;-74
2022/05/19 01:34:19;;;;;;;24.55;19.95;;;18.80;99.90;;;;;;5077965;27;36565;-74
2022/05/19 01:36:46;;;;;;;22.60;18.90;;;18.80;99.90;;;;;;5079074;28;40253;-74
2022/05/19 01:39:18;;;;;;;23.52;19.88;;;18.90;99.90;;;;;;5079160;28;39315;-74
2022/05/19 01:42:02;;;;;;;22.77;19.90;;;18.80;99.90;;;;;;5078547;28;38971;-74
2022/05/19 01:44:38;;;;;;;26.38;21.73;;;18.80;99.90;;;;;;5069678;28;47066;-74
2022/05/19 01:47:27;;;;;;;32.92;23.10;;;18.90;99.90;;;;;;5078361;27;39414;-74
2022/05/19 01:50:23;;;;;;;34.63;25.08;;;18.90;99.90;;;;;;5072008;28;39273;-74
2022/05/19 01:53:07;;;;;;;45.33;28.60;;;18.70;99.90;;;;;;5036306;28;48411;-73
2022/05/19 01:55:36;;;;;;;44.15;32.88;;;18.60;99.90;;;;;;5053413;28;47377;-73
2022/05/19 01:58:19;;;;;;;41.42;31.38;;;18.50;99.90;;;;;;5041900;28;39248;-73
2022/05/19 02:00:46;;;;;;;;;;;18.40;99.90;;;;;;5051363;28;38167;-73
2022/05/19 02:03:39;;;;;;;45.83;36.10;;;18.30;99.90;;;;;;5045960;28;42286;-74
2022/05/19 02:06:29;;;;;;;42.60;33.25;;;18.30;99.90;;;;;;5052989;28;35983;-74
2022/05/19 02:09:05;;;;;;;47.33;34.65;;;18.20;99.90;;;;;;5046874;28;39347;-73
2022/05/19 02:11:37;;;;;;;52.63;36.15;;;18.20;99.90;;;;;;5081719;27;48025;-74
2022/05/19 02:14:07;;;;;;;;;;;18.20;99.90;;;;;;5079042;28;38760;-74
2022/05/19 02:16:34;;;;;;;49.08;36.40;;;18.20;99.90;;;;;;5064364;28;39001;-73
2022/05/19 02:19:00;;;;;;;43.70;36.20;;;18.10;99.90;;;;;;5066517;28;38435;-73
2022/05/19 02:21:28;;;;;;;54.40;42.45;;;18.10;99.90;;;;;;5067740;28;39460;-73
2022/05/19 02:23:58;;;;;;;58.58;43.00;;;18.00;99.90;;;;;;5078322;28;37202;-73
2022/05/19 02:26:29;;;;;;;57.97;42.20;;;18.00;99.90;;;;;;5074405;27;38383;-74
2022/05/19 02:29:01;;;;;;;53.10;42.30;;;18.00;99.90;;;;;;5058461;28;38734;-73
2022/05/19 02:31:27;;;;;;;;;;;18.00;99.90;;;;;;5067016;28;39947;-73
2022/05/19 02:33:53;;;;;;;45.53;37.75;;;18.00;99.90;;;;;;5063488;28;37799;-74
2022/05/19 02:36:19;;;;;;;54.88;42.65;;;18.00;99.90;;;;;;5061816;28;34530;-74
2022/05/19 02:38:45;;;;;;;55.60;41.10;;;18.00;99.90;;;;;;5066175;28;37933;-73
2022/05/19 02:41:12;;;;;;;51.40;38.75;;;18.00;99.90;;;;;;5066951;27;38431;-74
2022/05/19 02:43:38;;;;;;;45.00;36.33;;;18.10;99.90;;;;;;5070728;28;38564;-73
2022/05/19 02:46:04;;;;;;;52.90;37.95;;;18.10;99.90;;;;;;5065677;28;37828;-73
2022/05/19 02:48:32;;;;;;;41.95;31.70;;;18.10;99.90;;;;;;5042221;28;39478;-73
2022/05/19 02:51:00;;;;;;;44.83;31.73;;;18.20;99.90;;;;;;5051511;28;39015;-74
2022/05/19 02:53:26;;;;;;;37.95;26.95;;;18.20;99.90;;;;;;5050210;27;37473;-73
2022/05/19 02:55:52;;;;;;;41.67;29.90;;;18.30;99.90;;;;;;5057407;28;38222;-74
2022/05/19 02:58:18;;;;;;;42.20;28.35;;;18.30;99.90;;;;;;5055178;28;39509;-75
2022/05/19 03:00:47;;;;;;;40.08;27.15;;;18.30;99.90;;;;;;5046811;28;38161;-74
2022/05/19 03:03:13;;;;;;;38.85;27.35;;;18.40;99.90;;;;;;5049742;28;37913;-74
2022/05/19 03:05:40;;;;;;;44.67;30.88;;;18.30;99.90;;;;;;5086512;28;37547;-73
2022/05/19 03:08:08;;;;;;;36.92;27.20;;;18.30;99.90;;;;;;5049826;28;38766;-74
2022/05/19 03:10:36;;;;;;;30.40;25.48;;;18.30;99.90;;;;;;5055021;28;40013;-74
2022/05/19 03:13:02;;;;;;;37.92;28.70;;;18.30;99.90;;;;;;5053272;28;38246;-74
2022/05/19 03:15:29;;;;;;;45.38;30.63;;;18.30;99.90;;;;;;5052664;28;36242;-74
2022/05/19 03:17:56;;;;;;;38.17;28.27;;;18.30;99.90;;;;;;5052516;28;39782;-74
2022/05/19 03:20:22;;;;;;;33.90;24.58;;;18.20;99.90;;;;;;5059086;27;38517;-74
2022/05/19 03:22:48;;;;;;;33.47;24.05;;;18.20;99.90;;;;;;5078542;28;38567;-74
2022/05/19 03:25:15;;;;;;;42.95;26.42;;;18.20;99.90;;;;;;5071661;27;37830;-76
2022/05/19 03:27:41;;;;;;;35.63;25.98;;;18.20;99.90;;;;;;5057658;28;42414;-74
2022/05/19 03:30:12;;;;;;;31.58;26.05;;;18.20;99.90;;;;;;5051135;27;39067;-75
2022/05/19 03:32:38;;;;;;;28.10;22.15;;;18.20;99.90;;;;;;5053311;28;37370;-74
2022/05/19 03:35:05;;;;;;;23.13;19.98;;;18.20;99.90;;;;;;5062880;28;37498;-74
2022/05/19 03:37:31;;;;;;;27.65;22.10;;;18.20;99.90;;;;;;5068938;28;38580;-74
2022/05/19 03:39:57;;;;;;;29.05;20.92;;;18.10;99.90;;;;;;5069734;27;38936;-74
2022/05/19 03:42:23;;;;;;;29.23;17.08;;;18.10;99.90;;;;;;5080567;27;38182;-74
2022/05/19 03:44:49;;;;;;;17.42;15.52;;;18.00;99.90;;;;;;5072286;28;38373;-73
2022/05/19 03:47:15;;;;;;;25.80;18.98;;;17.90;99.90;;;;;;5067593;27;39916;-73
2022/05/19 03:49:41;;;;;;;23.98;19.88;;;17.90;99.90;;;;;;5071922;28;39439;-73
2022/05/19 03:52:07;;;;;;;26.13;19.20;;;17.80;99.90;;;;;;5081923;28;39431;-73
2022/05/19 03:54:33;;;;;;;19.25;17.23;;;17.80;99.90;;;;;;5076938;28;37705;-73
2022/05/19 03:56:59;;;;;;;25.30;22.50;;;17.80;99.90;;;;;;5082199;27;38804;-74
2022/05/19 03:59:25;;;;;;;26.30;23.50;;;17.80;99.90;;;;;;5072192;27;38428;-75
2022/05/19 04:01:52;;;;;;;29.27;23.85;;;17.90;99.90;;;;;;5070317;28;37721;-74
2022/05/19 04:04:18;;;;;;;22.20;19.85;;;17.80;99.90;;;;;;5065970;27;37347;-75
2022/05/19 04:06:44;;;;;;;24.30;21.70;;;17.80;99.90;;;;;;5055692;28;40152;-75
2022/05/19 04:09:10;;;;;;;24.77;22.27;;;17.90;99.90;;;;;;5059922;27;38058;-74
2022/05/19 04:11:36;;;;;;;27.77;24.88;;;17.80;99.90;;;;;;5046578;28;38485;-74
2022/05/19 04:14:02;;;;;;;30.35;27.15;;;17.80;99.90;;;;;;5048787;28;36934;-74
2022/05/19 04:16:28;;;;;;;26.85;23.40;;;17.80;99.90;;;;;;5073147;27;40192;-74
2022/05/19 04:18:54;;;;;;;25.02;22.40;;;17.80;99.90;;;;;;5085620;27;38527;-74
2022/05/19 04:21:21;;;;;;;27.05;24.42;;;17.70;99.90;;;;;;5048807;27;38848;-74
2022/05/19 04:23:47;;;;;;;26.95;24.17;;;17.80;99.90;;;;;;5050597;28;38207;-74
2022/05/19 04:26:13;;;;;;;25.45;21.73;;;17.70;99.90;;;;;;5043290;28;40361;-75
2022/05/19 04:28:39;;;;;;;29.92;26.50;;;17.70;99.90;;;;;;5047542;28;38297;-74
2022/05/19 04:31:06;;;;;;;27.80;24.80;;;17.70;99.90;;;;;;5075633;27;39562;-74
2022/05/19 04:33:32;;;;;;;30.25;27.05;;;17.70;99.90;;;;;;5086959;27;37236;-74
2022/05/19 04:35:58;;;;;;;32.97;29.58;;;17.70;99.90;;;;;;5055542;28;39982;-74
2022/05/19 04:38:24;;;;;;;33.67;30.13;;;17.80;99.90;;;;;;5052223;27;38849;-74
2022/05/19 04:40:51;;;;;;;37.53;32.47;;;17.70;99.90;;;;;;5051301;28;38586;-75
2022/05/19 04:43:21;;;;;;;29.52;26.55;;;17.70;99.90;;;;;;5048666;28;38370;-75
2022/05/19 04:45:49;;;;;;;29.75;26.80;;;17.70;99.90;;;;;;5053000;28;39699;-75
2022/05/19 04:48:16;;;;;;;31.70;28.55;;;17.70;99.90;;;;;;5061068;28;40826;-75
2022/05/19 04:50:42;;;;;;;26.77;23.80;;;17.70;99.90;;;;;;5066571;28;40962;-74
2022/05/19 04:53:08;;;;;;;36.67;32.63;;;17.70;99.90;;;;;;5031471;27;38247;-75
2022/05/19 04:55:36;;;;;;;26.92;24.00;;;17.60;99.90;;;;;;5048007;28;41125;-75
2022/05/19 04:58:02;;;;;;;26.75;23.88;;;17.60;99.90;;;;;;5041559;27;38709;-75
2022/05/19 05:00:28;;;;;;;26.27;22.45;;;17.60;99.90;;;;;;5047324;27;37852;-75
2022/05/19 05:02:54;;;;;;;22.90;19.52;;;17.50;99.90;;;;;;5054946;28;37536;-74
2022/05/19 05:05:23;;;;;;;17.90;16.13;;;17.50;99.90;;;;;;5057498;27;40180;-75
2022/05/19 05:07:49;;;;;;;20.90;18.77;;;17.50;99.90;;;;;;5045263;28;39525;-75
2022/05/19 05:10:15;;;;;;;21.80;19.60;;;17.40;99.90;;;;;;5055367;27;39537;-77
2022/05/19 05:12:42;;;;;;;21.55;19.27;;;17.40;99.90;;;;;;5059037;27;36887;-77
2022/05/19 05:15:08;;;;;;;17.77;15.90;;;17.40;99.90;;;;;;5044324;28;39819;-77
2022/05/19 05:17:35;;;;;;;17.55;15.23;;;17.50;99.90;;;;;;5055175;28;38793;-77
2022/05/19 05:20:04;;;;;;;16.15;14.60;;;17.50;99.90;;;;;;5056078;27;38038;-77
2022/05/19 05:22:34;;;;;;;21.48;19.23;;;17.50;99.90;;;;;;5077776;28;46990;-77
2022/05/19 05:25:02;;;;;;;16.23;14.52;;;17.50;99.90;;;;;;5071289;27;38598;-77
2022/05/19 05:27:28;;;;;;;15.15;13.57;;;17.50;99.90;;;;;;5066454;28;47195;-76
2022/05/19 05:29:54;;;;;;;17.23;15.45;;;17.50;99.90;;;;;;5088799;27;39804;-77
2022/05/19 05:32:20;;;;;;;15.82;14.27;;;17.60;99.90;;;;;;5047223;27;37998;-77
2022/05/19 05:34:46;;;;;;;16.45;14.75;;;17.70;99.90;;;;;;5048537;28;39251;-77
2022/05/19 05:37:12;;;;;;;16.52;14.98;;;17.80;99.90;;;;;;5062947;28;39483;-76
2022/05/19 05:39:38;;;;;;;16.52;14.85;;;17.80;99.90;;;;;;5065412;27;39726;-76
2022/05/19 05:42:05;;;;;;;17.40;15.50;;;17.80;99.90;;;;;;5065702;27;37459;-76
2022/05/19 05:44:32;;;;;;;18.55;16.55;;;17.80;99.90;;;;;;5073058;28;38993;-76
2022/05/19 05:46:58;;;;;;;19.67;17.60;;;17.90;99.90;;;;;;5071923;28;38970;-77
2022/05/19 05:49:24;;;;;;;17.88;16.08;;;17.90;99.90;;;;;;5067396;27;37960;-76
2022/05/19 05:51:50;;;;;;;16.95;15.13;;;17.90;99.90;;;;;;5073216;28;37565;-76
2022/05/19 05:54:16;;;;;;;17.05;15.25;;;17.90;99.90;;;;;;5074586;27;39803;-77
2022/05/19 05:56:42;;;;;;;18.45;14.85;;;18.00;99.90;;;;;;5066023;28;38684;-77
2022/05/19 05:59:09;;;;;;;16.40;14.70;;;18.10;99.90;;;;;;5077386;27;39176;-76
2022/05/19 06:01:35;;;;;;;20.55;17.02;;;18.20;99.90;;;;;;5070559;28;38866;-76
2022/05/19 06:04:02;;;;;;;18.48;16.67;;;18.30;99.90;;;;;;5075462;27;39988;-76
2022/05/19 06:06:29;;;;;;;16.98;15.23;;;18.30;99.90;;;;;;5076151;28;47728;-77
2022/05/19 06:08:55;;;;;;;19.45;16.33;;;18.40;99.90;;;;;;5079114;28;37718;-77
2022/05/19 06:11:21;;;;;;;20.30;17.27;;;18.30;99.90;;;;;;5078186;28;37153;-76
2022/05/19 06:13:50;;;;;;;17.20;15.60;;;18.30;99.90;;;;;;5074373;28;37834;-76
2022/05/19 06:16:16;;;;;;;19.50;17.58;;;18.30;99.90;;;;;;5081658;27;39692;-77
2022/05/19 06:18:43;;;;;;;22.83;18.73;;;18.30;99.90;;;;;;5078352;27;37889;-77
2022/05/19 06:21:09;;;;;;;20.33;18.25;;;18.30;99.90;;;;;;5072093;28;37629;-76
2022/05/19 06:23:39;;;;;;;17.95;16.15;;;18.40;99.90;;;;;;5075999;28;40469;-76
2022/05/19 06:28:53;;;;;;;19.95;17.95;;;18.60;99.90;;;;;;5036390;22;20050;-75
2022/05/19 06:31:19;;;;;;;19.75;16.92;;;18.70;99.90;;;;;;4994203;28;36847;-74
2022/05/19 06:33:45;;;;;;;19.00;16.27;;;18.80;99.90;;;;;;4993038;28;37705;-74
2022/05/19 06:36:13;;;;;;;19.60;17.83;;;18.90;99.90;;;;;;4995205;28;38385;-75
2022/05/19 06:38:39;;;;;;;18.50;16.63;;;19.10;99.90;;;;;;4997995;28;37885;-74
2022/05/19 06:43:50;;;;;;;18.15;15.75;;;19.40;99.90;;;;;;5000136;28;39789;-75
2022/05/19 06:46:16;;;;;;;17.80;16.00;;;19.50;99.90;;;;;;5011957;28;38794;-78
2022/05/19 06:48:43;;;;;;;19.42;17.48;;;19.60;99.90;;;;;;5014447;28;38314;-79
2022/05/19 06:51:09;;;;;;;18.05;15.05;;;19.60;99.90;;;;;;5009171;28;37089;-79
2022/05/19 06:53:36;;;;;;;16.42;14.73;;;19.60;99.90;;;;;;5002391;28;39243;-79
2022/05/19 06:56:02;;;;;;;17.25;14.52;;;19.90;99.90;;;;;;4997863;28;37484;-78
2022/05/19 06:58:28;;;;;;;15.93;14.40;;;20.10;99.90;;;;;;5018997;28;37464;-79
2022/05/19 07:00:54;;;;;;;18.63;14.05;;;20.30;99.90;;;;;;4997035;28;37134;-79
2022/05/19 07:03:20;;;;;;;13.77;12.23;;;20.50;99.90;;;;;;4998637;28;37630;-79
2022/05/19 07:05:46;;;;;;;14.27;11.82;;;20.60;99.90;;;;;;5024361;28;37836;-79
2022/05/19 07:08:13;;;;;;;13.15;10.73;;;20.40;99.90;;;;;;5002924;28;38134;-79
2022/05/19 07:10:39;;;;;;;12.65;11.35;;;20.70;99.90;;;;;;5007713;28;38203;-79
2022/05/19 07:13:06;;;;;;;14.63;13.05;;;21.00;99.90;;;;;;4996760;28;39640;-79
2022/05/19 07:15:32;;;;;;;15.88;11.38;;;21.10;99.90;;;;;;5016172;28;37727;-79
2022/05/19 07:17:58;;;;;;;15.15;12.00;;;21.00;99.90;;;;;;4996982;28;37577;-78
2022/05/19 07:23:14;;;;;;;12.68;11.20;;;21.20;99.90;;;;;;5001410;28;39652;-78
2022/05/19 07:25:41;;;;;;;13.15;10.98;;;21.10;99.90;;;;;;4989884;28;39272;-78
2022/05/19 07:28:08;;;;;;;15.82;11.02;;;21.10;99.90;;;;;;4996639;28;41057;-79
2022/05/19 07:30:37;;;;;;;12.52;11.23;;;21.00;99.90;;;;;;5002485;28;36325;-78
2022/05/19 07:33:03;;;;;;;15.52;12.00;;;21.10;99.90;;;;;;4989996;28;37290;-79
2022/05/19 07:35:29;;;;;;;16.50;11.70;;;20.90;99.90;;;;;;5008758;28;39980;-78
2022/05/19 07:37:55;;;;;;;11.13;10.05;;;20.80;99.90;;;;;;5007211;28;39159;-78
2022/05/19 07:40:22;;;;;;;15.60;11.18;;;20.90;99.90;;;;;;5001212;28;37426;-79
2022/05/19 07:42:48;;;;;;;10.30;9.30;;;20.80;99.90;;;;;;4998825;28;39346;-79
2022/05/19 07:45:15;;;;;;;13.32;10.75;;;20.90;99.90;;;;;;4998854;28;40482;-79
2022/05/19 07:47:41;;;;;;;11.10;8.85;;;21.00;99.90;;;;;;5004966;28;37219;-79
2022/05/19 07:50:10;;;;;;;9.68;8.68;;;21.00;99.90;;;;;;5017323;28;36576;-79
2022/05/19 07:52:38;;;;;;;9.40;8.05;;;21.10;99.90;;;;;;4998467;28;38250;-78
2022/05/19 07:55:09;;;;;;;9.40;8.10;;;21.10;99.90;;;;;;4996138;28;38784;-78
2022/05/19 07:57:35;;;;;;;11.32;8.90;;;21.10;99.90;;;;;;4999734;28;39060;-79
2022/05/19 08:00:02;;;;;;;10.55;7.72;;;20.90;99.90;;;;;;5015385;28;37263;-79
2022/05/19 08:02:32;;;;;;;10.25;7.95;;;20.90;99.90;;;;;;5000640;28;47396;-79
2022/05/19 08:04:58;;;;;;;11.85;8.40;;;20.90;99.90;;;;;;5010251;28;37657;-79
2022/05/19 08:07:24;;;;;;;13.10;8.75;;;21.00;99.90;;;;;;5002125;28;36984;-78
2022/05/19 08:15:38;;;;;;;10.63;9.52;;;21.70;99.90;;;;;;4992950;28;39886;-78
2022/05/19 08:18:08;;;;;;;14.30;9.50;;;21.90;99.90;;;;;;5009500;28;38805;-75
2022/05/19 08:20:36;;;;;;;10.98;8.63;;;22.20;99.90;;;;;;5012389;28;35469;-76
2022/05/19 08:23:03;;;;;;;9.30;7.95;;;22.20;99.90;;;;;;4999746;28;38579;-79
2022/05/19 08:25:29;;;;;;;11.23;7.32;;;22.10;99.90;;;;;;5010740;28;37769;-79
2022/05/19 08:27:56;;;;;;;8.68;6.57;;;22.30;99.90;;;;;;5010987;28;38430;-79
2022/05/19 08:30:23;;;;;;;8.35;5.60;;;22.50;99.90;;;;;;5014568;28;36229;-79
2022/05/19 08:32:49;;;;;;;8.75;5.82;;;22.60;99.90;;;;;;5001230;28;37614;-80
2022/05/19 08:35:16;;;;;;;8.48;5.55;;;22.80;99.90;;;;;;5001130;28;39538;-80
2022/05/19 08:37:42;;;;;;;6.40;4.05;;;22.80;99.90;;;;;;5005924;28;37891;-80
2022/05/19 08:40:08;;;;;;;5.60;4.50;;;23.10;99.90;;;;;;4998081;28;36847;-80
2022/05/19 08:42:38;;;;;;;6.72;4.20;;;23.20;99.90;;;;;;5019084;28;39441;-80
2022/05/19 08:45:16;;;;;;;7.15;3.83;;;23.30;99.90;;;;;;5000773;28;39619;-86
2022/05/19 08:47:42;;;;;;;5.78;3.92;;;23.80;99.90;;;;;;5000409;28;38147;-89
2022/05/19 08:50:30;;;;;;;5.82;3.70;;;23.80;99.90;;;;;;5016058;28;36396;-79
2022/05/19 08:52:56;;;;;;;4.65;3.08;;;23.90;99.90;;;;;;4997676;28;38657;-79
2022/05/19 08:55:23;;;;;;;5.45;3.40;;;24.00;99.90;;;;;;5014870;28;37654;-79
2022/05/19 08:58:10;;;;;;;5.95;3.65;;;24.10;99.90;;;;;;5001518;28;38782;-79
2022/05/19 09:00:43;;;;;;;3.53;3.17;;;23.70;99.90;;;;;;5014927;28;48421;-80
2022/05/19 09:03:16;;;;;;;4.72;3.40;;;23.50;99.90;;;;;;5010512;28;38658;-80
2022/05/19 09:06:12;;;;;;;5.25;3.08;;;23.70;99.90;;;;;;5023478;28;38280;-79
2022/05/19 09:09:11;;;;;;;3.10;2.80;;;24.00;99.90;;;;;;5005353;28;47186;-79
2022/05/19 09:11:48;;;;;;;6.40;2.72;;;24.00;99.90;;;;;;5007922;28;48985;-80
2022/05/19 09:14:22;;;;;;;3.63;2.90;;;24.00;99.90;;;;;;5002079;28;38038;-80
2022/05/19 09:16:49;;;;;;;4.18;3.38;;;23.90;99.90;;;;;;5009246;28;38627;-80
2022/05/19 09:19:29;;;;;;;4.28;2.65;;;23.90;99.90;;;;;;5004994;28;38571;-80
2022/05/19 09:22:14;;;;;;;2.95;2.40;;;24.10;99.90;;;;;;5004607;28;37612;-79
2022/05/19 09:24:43;;;;;;;2.90;2.70;;;24.40;99.90;;;;;;5017636;28;48617;-80
2022/05/19 09:27:09;;;;;;;3.72;2.85;;;24.70;99.90;;;;;;5003886;28;38409;-80
2022/05/19 09:29:50;;;;;;;5.82;3.53;;;25.00;99.90;;;;;;5023601;28;38277;-79
2022/05/19 09:32:34;;;;;;;4.40;3.22;;;24.90;99.90;;;;;;5003199;28;36961;-79
2022/05/19 09:35:18;;;;;;;3.70;3.38;;;25.10;99.90;;;;;;5006640;28;38713;-73
2022/05/19 09:37:49;;;;;;;6.93;3.50;;;25.10;99.90;;;;;;5005344;28;48800;-75
2022/05/19 09:40:28;;;;;;;7.93;3.97;;;25.50;99.90;;;;;;5011894;28;39929;-75
2022/05/19 09:43:33;;;;;;;6.03;4.30;;;25.20;99.90;;;;;;5010652;28;37694;-77
2022/05/19 09:46:14;;;;;;;5.47;4.43;;;25.30;99.90;;;;;;4898402;29;49162;-77
2022/05/19 09:49:06;;;;;;;4.00;3.60;;;25.40;99.90;;;;;;4994254;28;47439;-77
2022/05/19 09:51:42;;;;;;;4.20;3.60;;;25.70;99.90;;;;;;5006927;28;48859;-78
2022/05/19 09:54:13;;;;;;;5.45;4.95;;;25.90;99.90;;;;;;5001617;28;38526;-78
2022/05/19 09:57:03;;;;;;;6.72;5.15;;;25.20;99.90;;;;;;5005590;28;38452;-77
2022/05/19 09:59:40;;;;;;;7.82;5.88;;;25.30;99.90;;;;;;5003286;28;48462;-77
2022/05/19 10:02:25;;;;;;;6.40;5.63;;;24.60;99.90;;;;;;5015115;28;36790;-77
2022/05/19 10:04:55;;;;;;;6.57;5.97;;;24.50;99.90;;;;;;5018239;28;36239;-78
2022/05/19 10:07:24;;;;;;;6.43;5.57;;;24.60;99.90;;;;;;5004322;28;37544;-79
2022/05/19 10:09:52;;;;;;;6.60;6.00;;;24.60;99.90;;;;;;5012069;28;37840;-78
2022/05/19 10:12:31;;;;;;;8.68;6.72;;;24.50;99.90;;;;;;5001957;28;38151;-79
2022/05/19 10:15:08;;;;;;;7.15;6.00;;;24.20;99.90;;;;;;5025830;28;36330;-78
2022/05/19 10:17:56;;;;;;;6.68;5.80;;;23.90;99.90;;;;;;5017018;28;48065;-78
2022/05/19 10:20:25;;;;;;;7.10;5.95;;;23.70;99.90;;;;;;5001262;28;37574;-79
2022/05/19 10:23:32;;;;;;;7.63;6.80;;;23.80;99.90;;;;;;5017322;28;37755;-78
2022/05/19 10:26:23;;;;;;;8.43;7.07;;;23.70;99.90;;;;;;5005937;28;48385;-78
2022/05/19 10:32:15;;;;;;;10.65;8.25;;;23.50;99.90;;;;;;5016605;28;49682;-79
2022/05/19 10:34:48;;;;;;;9.60;7.90;;;23.30;99.90;;;;;;5002193;28;48653;-83
2022/05/19 10:37:35;;;;;;;9.73;8.02;;;23.20;99.90;;;;;;5020700;28;35536;-79
2022/05/19 10:40:35;;;;;;;13.85;9.63;;;23.00;99.90;;;;;;5016759;28;37591;-79
2022/05/19 10:43:04;;;;;;;17.83;13.50;;;22.70;99.90;;;;;;5031093;28;38794;-77
2022/05/19 10:45:39;;;;;;;18.77;10.80;;;22.30;99.90;;;;;;5006719;28;48709;-82
2022/05/19 10:48:44;;;;;;;11.60;7.93;;;21.40;99.90;;;;;;5004571;28;38024;-73
2022/05/19 10:51:14;;;;;;;11.10;6.88;;;20.30;99.90;;;;;;5016737;28;39553;-73
2022/05/19 10:53:57;;;;;;;9.60;6.55;;;19.70;99.90;;;;;;5003584;28;39273;-74
2022/05/19 10:56:30;;;;;;;12.65;9.18;;;19.40;99.90;;;;;;5020592;28;36962;-75
2022/05/19 10:59:09;;;;;;;13.95;10.82;;;19.30;99.90;;;;;;5003572;28;37519;-75
2022/05/19 11:01:54;;;;;;;17.63;11.68;;;19.10;99.90;;;;;;5003681;28;46927;-77
2022/05/19 11:04:55;;;;;;;20.05;15.45;;;19.20;99.90;;;;;;5015358;28;37732;-80
2022/05/19 11:07:30;;;;;;;26.30;20.50;;;19.20;99.90;;;;;;5006746;28;38981;-74
2022/05/19 11:10:33;;;;;;;26.00;20.95;;;19.20;99.90;;;;;;5007680;28;38772;-74
2022/05/19 11:13:16;;;;;;;23.98;19.92;;;19.20;99.90;;;;;;5003501;28;48632;-74
2022/05/19 11:15:47;;;;;;;;;;;19.10;99.90;;;;;;4997385;28;47406;-74
2022/05/19 11:18:26;;;;;;;15.07;12.93;;;19.00;99.90;;;;;;5006457;28;36880;-74
2022/05/19 11:21:15;;;;;;;15.45;11.48;;;18.80;99.90;;;;;;5004455;28;36706;-76
2022/05/19 11:24:01;;;;;;;18.58;12.52;;;18.60;99.90;;;;;;5004248;28;48322;-78
2022/05/19 11:27:04;;;;;;;14.65;11.60;;;18.50;99.90;;;;;;5015134;28;47586;-78
2022/05/19 11:29:46;;;;;;;15.85;12.35;;;18.40;99.90;;;;;;5002425;28;49489;-80
2022/05/19 11:32:22;;;;;;;13.18;11.85;;;18.30;99.90;;;;;;5000534;28;37077;-80
2022/05/19 11:34:57;;;;;;;15.00;12.50;;;18.20;99.90;;;;;;5018170;28;38366;-82
2022/05/19 11:37:57;;;;;;;15.40;12.57;;;18.10;99.90;;;;;;5018146;28;37185;-82
2022/05/19 11:40:32;;;;;;;18.90;13.65;;;18.10;99.90;;;;;;5009920;28;36763;-81
2022/05/19 11:43:09;;;;;;;14.82;11.23;;;18.10;99.90;;;;;;5002306;28;37376;-79
2022/05/19 11:45:58;;;;;;;13.65;10.90;;;18.10;99.90;;;;;;5000928;28;48381;-80
2022/05/19 11:57:37;;;;;;;12.25;10.48;;;18.30;99.90;;;;;;4999924;28;49533;-79
2022/05/19 12:00:04;;;;;;;;;;;18.10;99.90;;;;;;5002884;28;39960;-78
2022/05/19 12:02:50;;;;;;;15.40;11.57;;;18.10;99.90;;;;;;5000656;28;37489;-78
2022/05/19 12:05:26;;;;;;;12.50;11.18;;;18.20;99.90;;;;;;4994218;28;37324;-78
2022/05/19 12:07:55;;;;;;;14.27;12.77;;;18.20;99.90;;;;;;5015365;28;37478;-81
2022/05/19 12:10:41;;;;;;;14.73;12.05;;;18.30;99.90;;;;;;4993196;28;37958;-80
2022/05/19 12:13:19;;;;;;;16.92;12.27;;;18.20;99.90;;;;;;5004154;28;38285;-82
2022/05/19 12:15:57;;;;;;;16.60;13.20;;;18.30;99.90;;;;;;5007589;28;38534;-85
2022/05/19 12:18:23;;;;;;;16.55;14.75;;;18.40;99.90;;;;;;5024473;28;36978;-85
2022/05/19 12:20:53;;;;;;;16.05;12.77;;;18.40;99.90;;;;;;5011427;28;38815;-84
2022/05/19 12:23:30;;;;;;;21.38;13.05;;;18.40;99.90;;;;;;5006540;28;39445;-84
2022/05/19 12:26:19;;;;;;;16.05;12.63;;;18.40;99.90;;;;;;5003195;28;38183;-84
2022/05/19 12:29:11;;;;;;;13.95;12.23;;;18.50;99.90;;;;;;5019872;28;47275;-83
2022/05/19 12:31:59;;;;;;;15.68;12.30;;;18.80;99.90;;;;;;5006874;28;48071;-83
2022/05/19 12:34:32;;;;;;;14.15;11.82;;;19.00;99.90;;;;;;5020668;28;37819;-84
2022/05/19 12:37:38;;;;;;;13.52;10.45;;;19.00;99.90;;;;;;5007019;28;39069;-83
2022/05/19 12:40:30;;;;;;;14.27;11.60;;;19.40;99.90;;;;;;5011126;28;47321;-84
2022/05/19 12:43:08;;;;;;;;;;;20.00;99.90;;;;;;5009825;28;37882;-85
2022/05/19 12:45:48;;;;;;;7.20;6.47;;;20.00;99.90;;;;;;5008196;28;48786;-84
2022/05/19 12:48:14;;;;;;;12.35;8.20;;;20.10;99.90;;;;;;5001956;28;36445;-83
2022/05/19 12:50:40;;;;;;;10.48;8.75;;;20.10;99.90;;;;;;5001322;28;39871;-80
2022/05/19 12:53:13;;;;;;;9.05;7.95;;;20.90;99.90;;;;;;4997342;28;36798;-79
2022/05/19 12:55:39;;;;;;;8.95;7.07;;;21.30;99.90;;;;;;5015079;28;37255;-80
2022/05/19 12:58:33;;;;;;;10.05;7.03;;;21.30;99.90;;;;;;5000466;28;36990;-80
2022/05/19 13:01:23;;;;;;;9.23;6.50;;;21.20;99.90;;;;;;5005185;28;39773;-78
2022/05/19 13:03:54;;;;;;;9.32;7.43;;;21.70;99.90;;;;;;5013677;28;47275;-79
2022/05/19 13:06:24;;;;;;;9.30;6.23;;;22.20;99.90;;;;;;5002007;28;39802;-79
2022/05/19 13:08:54;;;;;;;8.80;7.20;;;22.60;99.90;;;;;;5006623;28;36956;-80
2022/05/19 13:11:38;;;;;;;10.07;6.00;;;22.80;99.90;;;;;;4996013;28;37770;-79
2022/05/19 13:14:17;;;;;;;8.02;5.50;;;22.30;99.90;;;;;;5002380;28;37873;-79
2022/05/19 13:16:51;;;;;;;11.48;6.10;;;22.50;99.90;;;;;;4997427;28;37502;-78
2022/05/19 13:19:23;;;;;;;9.77;6.03;;;22.70;99.90;;;;;;4996042;28;36864;-78
2022/05/19 13:21:56;;;;;;;7.35;5.25;;;22.70;99.90;;;;;;4998588;28;38209;-79
2022/05/19 13:24:24;;;;;;;9.75;5.97;;;23.10;99.90;;;;;;5001086;28;39075;-79